createdAt,value
2023-12-27T00:01:56.057Z,10.70
2023-12-27T00:04:23.167Z,8.30
2023-12-27T00:06:50.874Z,8.30
2023-12-27T00:09:19.150Z,10.50
2023-12-27T00:11:46.184Z,10.70
2023-12-27T00:14:13.201Z,10.80
2023-12-27T00:16:41.348Z,10.00
2023-12-27T00:19:08.641Z,8.30
2023-12-27T00:21:35.897Z,8.20
2023-12-27T00:24:02.972Z,8.20
2023-12-27T00:26:30.045Z,8.20
2023-12-27T00:28:57.115Z,8.40
2023-12-27T00:31:24.839Z,8.30
2023-12-27T00:33:52.230Z,10.50
2023-12-27T00:36:22.446Z,10.90
2023-12-27T00:38:49.507Z,9.10
2023-12-27T00:41:16.432Z,8.90
2023-12-27T00:43:43.355Z,8.20
2023-12-27T00:46:10.468Z,8.20
2023-12-27T00:48:37.664Z,8.40
2023-12-27T00:51:06.729Z,9.80
2023-12-27T00:53:33.952Z,8.10
2023-12-27T00:56:01.091Z,8.90
2023-12-27T00:58:28.178Z,10.20
2023-12-27T01:00:55.188Z,8.10
2023-12-27T01:03:22.485Z,9.70
2023-12-27T01:05:49.533Z,8.10
2023-12-27T01:08:16.496Z,8.10
2023-12-27T01:10:43.481Z,9.40
2023-12-27T01:13:10.473Z,10.70
2023-12-27T01:15:37.651Z,8.10
2023-12-27T01:18:05.151Z,8.00
2023-12-27T01:20:32.232Z,8.00
2023-12-27T01:22:59.231Z,8.00
2023-12-27T01:25:26.173Z,8.00
2023-12-27T01:27:53.438Z,10.60
2023-12-27T01:30:20.660Z,8.00
2023-12-27T01:32:47.749Z,10.20
2023-12-27T01:35:14.964Z,10.70
2023-12-27T01:37:42.076Z,8.00
2023-12-27T01:40:09.710Z,8.00
2023-12-27T01:42:38.742Z,8.00
2023-12-27T01:45:07.312Z,8.00
2023-12-27T01:47:36.287Z,8.00
2023-12-27T01:50:04.996Z,7.90
2023-12-27T01:52:32.596Z,8.00
2023-12-27T01:55:00.241Z,8.50
2023-12-27T01:57:27.496Z,10.20
2023-12-27T01:59:54.545Z,10.70
2023-12-27T02:02:22.635Z,7.90
2023-12-27T02:04:49.808Z,7.90
2023-12-27T02:07:24.698Z,7.90
2023-12-27T02:09:58.413Z,7.90
2023-12-27T02:12:31.031Z,7.90
2023-12-27T02:14:58.716Z,9.80
2023-12-27T02:17:28.628Z,7.90
2023-12-27T02:19:56.036Z,7.90
2023-12-27T02:22:25.171Z,7.90
2023-12-27T02:24:55.147Z,9.00
2023-12-27T02:27:23.131Z,9.50
2023-12-27T02:29:50.296Z,10.00
2023-12-27T02:32:17.310Z,7.90
2023-12-27T02:34:44.527Z,7.90
2023-12-27T02:37:11.657Z,10.70
2023-12-27T02:39:38.777Z,7.80
2023-12-27T02:42:05.973Z,10.70
2023-12-27T02:44:32.977Z,7.90
2023-12-27T02:47:02.656Z,8.70
2023-12-27T02:49:29.926Z,10.30
2023-12-27T02:51:57.077Z,10.00
2023-12-27T02:54:24.159Z,7.70
2023-12-27T02:56:51.181Z,7.80
2023-12-27T02:59:18.162Z,7.70
2023-12-27T03:01:45.159Z,7.90
2023-12-27T03:04:12.140Z,7.70
2023-12-27T03:06:39.141Z,9.10
2023-12-27T03:09:06.180Z,9.20
2023-12-27T03:11:33.233Z,9.30
2023-12-27T03:14:00.333Z,10.40
2023-12-27T03:16:28.576Z,7.70
2023-12-27T03:18:56.296Z,7.70
2023-12-27T03:21:23.500Z,7.70
2023-12-27T03:23:50.427Z,8.90
2023-12-27T03:26:17.551Z,9.80
2023-12-27T03:28:44.500Z,7.60
2023-12-27T03:31:11.565Z,7.60
2023-12-27T03:33:38.878Z,7.60
2023-12-27T03:36:06.723Z,8.80
2023-12-27T03:38:33.709Z,7.60
2023-12-27T03:41:00.616Z,8.70
2023-12-27T03:43:27.582Z,9.20
2023-12-27T03:45:55.928Z,7.60
2023-12-27T03:48:23.169Z,7.60
2023-12-27T03:50:50.346Z,7.60
2023-12-27T03:53:17.317Z,7.60
2023-12-27T03:55:44.509Z,7.60
2023-12-27T03:58:11.633Z,7.60
2023-12-27T04:00:38.709Z,8.20
2023-12-27T04:03:05.842Z,8.40
2023-12-27T04:05:32.998Z,10.20
2023-12-27T04:08:00.149Z,7.60
2023-12-27T04:10:30.597Z,7.60
2023-12-27T04:12:57.602Z,7.60
2023-12-27T04:15:24.562Z,9.30
2023-12-27T04:17:51.818Z,7.70
2023-12-27T04:20:18.825Z,7.60
2023-12-27T04:22:45.898Z,7.60
2023-12-27T04:25:13.060Z,9.60
2023-12-27T04:27:40.081Z,7.60
2023-12-27T04:30:07.723Z,7.50
2023-12-27T04:32:35.089Z,7.60
2023-12-27T04:35:02.074Z,7.60
2023-12-27T04:37:29.079Z,9.50
2023-12-27T04:39:56.060Z,7.50
2023-12-27T04:42:23.025Z,7.50
2023-12-27T04:44:50.022Z,9.70
2023-12-27T04:47:16.958Z,10.20
2023-12-27T04:49:44.083Z,7.40
2023-12-27T04:52:11.251Z,7.40
2023-12-27T04:54:38.239Z,9.80
2023-12-27T04:57:05.515Z,9.40
2023-12-27T04:59:32.520Z,7.30
2023-12-27T05:01:59.504Z,7.80
2023-12-27T05:04:26.581Z,9.40
2023-12-27T05:06:53.571Z,8.10
2023-12-27T05:09:20.582Z,7.30
2023-12-27T05:11:48.044Z,8.50
2023-12-27T05:14:17.530Z,9.30
2023-12-27T05:16:48.090Z,7.30
2023-12-27T05:19:15.364Z,7.60
2023-12-27T05:21:42.487Z,8.90
2023-12-27T05:24:09.510Z,7.20
2023-12-27T05:26:36.493Z,7.20
2023-12-27T05:29:03.588Z,7.20
2023-12-27T05:31:31.162Z,7.90
2023-12-27T05:33:58.985Z,7.20
2023-12-27T05:36:26.132Z,7.20
2023-12-27T05:38:53.286Z,9.60
2023-12-27T05:41:25.666Z,7.20
2023-12-27T05:43:54.791Z,9.80
2023-12-27T05:46:22.544Z,7.20
2023-12-27T05:48:49.809Z,9.20
2023-12-27T05:51:16.911Z,7.20
2023-12-27T05:53:43.920Z,7.20
2023-12-27T05:56:10.870Z,7.20
2023-12-27T05:58:38.029Z,7.20
2023-12-27T06:01:05.629Z,9.30
2023-12-27T06:03:33.074Z,7.20
2023-12-27T06:06:00.098Z,7.30
2023-12-27T06:08:27.284Z,9.40
2023-12-27T06:10:54.307Z,7.30
2023-12-27T06:13:21.327Z,9.70
2023-12-27T06:15:48.340Z,7.40
2023-12-27T06:18:15.347Z,7.30
2023-12-27T06:20:42.359Z,7.30
2023-12-27T06:23:09.324Z,8.50
2023-12-27T06:25:36.262Z,9.20
2023-12-27T06:28:05.360Z,7.30
2023-12-27T06:30:32.461Z,7.30
2023-12-27T06:32:59.938Z,7.30
2023-12-27T06:35:26.966Z,7.30
2023-12-27T06:37:53.970Z,7.30
2023-12-27T06:40:21.005Z,7.30
2023-12-27T06:42:48.105Z,9.60
2023-12-27T06:45:15.336Z,8.10
2023-12-27T06:47:42.501Z,7.30
2023-12-27T06:50:09.723Z,7.30
2023-12-27T06:52:36.740Z,7.20
2023-12-27T06:55:04.013Z,7.20
2023-12-27T06:57:30.980Z,7.20
2023-12-27T06:59:57.968Z,7.20
2023-12-27T07:02:24.939Z,10.00
2023-12-27T07:04:52.132Z,7.30
2023-12-27T07:07:19.321Z,7.30
2023-12-27T07:09:46.365Z,7.50
2023-12-27T07:12:13.465Z,7.30
2023-12-27T07:14:40.666Z,8.20
2023-12-27T07:17:08.060Z,7.30
2023-12-27T07:19:35.158Z,7.30
2023-12-27T07:22:03.361Z,7.30
2023-12-27T07:24:30.877Z,7.30
2023-12-27T07:26:58.303Z,7.30
2023-12-27T07:29:25.421Z,7.30
2023-12-27T07:31:53.384Z,7.30
2023-12-27T07:34:20.541Z,9.30
2023-12-27T07:36:47.772Z,9.70
2023-12-27T07:39:16.934Z,7.30
2023-12-27T07:41:43.991Z,8.40
2023-12-27T07:44:11.101Z,7.30
2023-12-27T07:46:38.058Z,9.30
2023-12-27T07:49:05.453Z,9.80
2023-12-27T07:51:32.541Z,7.90
2023-12-27T07:54:01.250Z,7.30
2023-12-27T07:56:29.825Z,7.70
2023-12-27T07:58:56.940Z,9.70
2023-12-27T08:01:27.539Z,7.40
2023-12-27T08:03:56.351Z,10.10
2023-12-27T08:06:23.783Z,6.90
2023-12-27T08:08:50.913Z,7.40
2023-12-27T08:11:18.330Z,9.70
2023-12-27T08:13:45.281Z,7.50
2023-12-27T08:16:12.316Z,7.50
2023-12-27T08:18:39.756Z,10.30
2023-12-27T08:21:07.170Z,9.30
2023-12-27T08:23:34.368Z,7.50
2023-12-27T08:26:01.598Z,9.40
2023-12-27T08:28:28.669Z,7.60
2023-12-27T08:30:55.840Z,7.80
2023-12-27T08:33:23.094Z,9.70
2023-12-27T08:35:50.177Z,9.70
2023-12-27T08:38:17.228Z,10.20
2023-12-27T08:40:44.301Z,10.50
2023-12-27T08:43:11.315Z,8.90
2023-12-27T08:45:38.444Z,7.80
2023-12-27T08:48:08.680Z,10.90
2023-12-27T08:50:35.869Z,7.90
2023-12-27T08:53:03.022Z,9.10
2023-12-27T08:55:30.090Z,8.00
2023-12-27T08:57:57.431Z,8.00
2023-12-27T09:00:24.833Z,8.30
2023-12-27T09:02:51.960Z,8.20
2023-12-27T09:05:19.080Z,8.30
2023-12-27T09:07:46.204Z,8.40
2023-12-27T09:10:13.364Z,8.60
2023-12-27T09:12:40.512Z,8.70
2023-12-27T09:15:08.972Z,10.50
2023-12-27T09:17:36.375Z,8.90
2023-12-27T09:20:05.157Z,9.50
2023-12-27T09:22:32.403Z,9.00
2023-12-27T09:24:59.555Z,9.00
2023-12-27T09:27:27.573Z,11.80
2023-12-27T09:29:54.994Z,11.50
2023-12-27T09:32:22.322Z,9.40
2023-12-27T09:34:49.554Z,10.60
2023-12-27T09:37:16.626Z,11.50
2023-12-27T09:39:43.645Z,12.40
2023-12-27T09:42:11.043Z,10.30
2023-12-27T09:44:40.138Z,11.10
2023-12-27T09:47:10.445Z,10.50
2023-12-27T09:49:39.006Z,10.70
2023-12-27T09:52:07.839Z,10.90
2023-12-27T09:54:35.170Z,10.00
2023-12-27T09:57:05.285Z,11.90
2023-12-27T09:59:40.829Z,10.20
2023-12-27T10:02:19.092Z,11.60
2023-12-27T10:05:05.480Z,11.80
2023-12-27T10:07:33.779Z,10.30
2023-12-27T10:10:11.851Z,10.40
2023-12-27T10:12:50.737Z,10.80
2023-12-27T10:15:17.836Z,11.90
2023-12-27T10:17:44.945Z,10.50
2023-12-27T10:20:37.668Z,10.50
2023-12-27T10:23:06.076Z,10.50
2023-12-27T10:25:33.839Z,11.60
2023-12-27T10:28:01.450Z,11.60
2023-12-27T10:30:29.001Z,11.00
2023-12-27T10:33:03.702Z,11.00
2023-12-27T10:35:36.543Z,10.80
2023-12-27T10:38:07.884Z,11.20
2023-12-27T10:40:36.872Z,10.30
2023-12-27T10:43:04.297Z,12.00
2023-12-27T10:45:31.450Z,10.30
2023-12-27T10:48:02.048Z,10.20
2023-12-27T10:50:32.121Z,11.30
2023-12-27T10:53:09.877Z,11.80
2023-12-27T10:55:39.258Z,10.30
2023-12-27T10:58:17.642Z,11.50
2023-12-27T11:00:46.407Z,11.10
2023-12-27T11:03:14.350Z,11.60
2023-12-27T11:05:42.418Z,12.10
2023-12-27T11:08:12.035Z,10.60
2023-12-27T11:10:40.466Z,10.90
2023-12-27T11:13:13.749Z,12.50
2023-12-27T11:15:46.756Z,11.90
2023-12-27T11:18:14.658Z,12.20
2023-12-27T11:20:42.237Z,11.20
2023-12-27T11:23:10.131Z,12.20
2023-12-27T11:25:37.293Z,11.60
2023-12-27T11:28:05.195Z,11.80
2023-12-27T11:30:34.756Z,12.20
2023-12-27T11:33:02.614Z,12.50
2023-12-27T11:35:31.667Z,12.90
2023-12-27T11:38:20.796Z,13.50
2023-12-27T11:40:49.355Z,13.50
2023-12-27T11:43:30.614Z,13.30
2023-12-27T11:46:06.286Z,13.80
2023-12-27T11:48:37.347Z,14.10
2023-12-27T11:51:37.552Z,14.20
2023-12-27T11:54:09.027Z,14.00
2023-12-27T11:56:40.072Z,14.10
2023-12-27T11:59:09.951Z,14.20
2023-12-27T12:01:39.218Z,14.80
2023-12-27T12:04:40.569Z,15.50
2023-12-27T12:07:50.779Z,14.60
2023-12-27T12:10:28.085Z,14.50
2023-12-27T12:12:59.560Z,14.20
2023-12-27T12:15:30.980Z,14.00
2023-12-27T12:18:00.075Z,13.70
2023-12-27T12:20:28.644Z,13.30
2023-12-27T12:22:56.460Z,13.60
2023-12-27T12:25:29.024Z,12.80
2023-12-27T12:27:56.442Z,12.60
2023-12-27T12:30:23.711Z,13.20
2023-12-27T12:32:51.380Z,13.00
2023-12-27T12:35:18.603Z,13.30
2023-12-27T12:37:45.710Z,11.80
2023-12-27T12:40:15.548Z,11.80
2023-12-27T12:42:43.234Z,11.60
2023-12-27T12:45:11.323Z,11.50
2023-12-27T12:47:39.395Z,11.30
2023-12-27T12:50:07.819Z,12.70
2023-12-27T12:52:38.228Z,11.10
2023-12-27T12:55:05.993Z,11.30
2023-12-27T12:57:33.824Z,11.40
2023-12-27T13:00:01.029Z,13.00
2023-12-27T13:02:29.049Z,11.80
2023-12-27T13:04:58.967Z,12.60
2023-12-27T13:07:29.993Z,13.40
2023-12-27T13:10:01.953Z,12.80
2023-12-27T13:12:31.345Z,12.00
2023-12-27T13:15:00.025Z,12.90
2023-12-27T13:17:27.648Z,13.00
2023-12-27T13:19:54.865Z,13.80
2023-12-27T13:22:22.152Z,12.80
2023-12-27T13:24:49.456Z,13.00
2023-12-27T13:27:16.597Z,13.00
2023-12-27T13:29:43.645Z,12.90
2023-12-27T13:32:11.036Z,12.90
2023-12-27T13:34:38.276Z,13.50
2023-12-27T13:37:05.437Z,14.10
2023-12-27T13:39:32.504Z,12.60
2023-12-27T13:41:59.644Z,13.40
2023-12-27T13:44:26.628Z,14.00
2023-12-27T13:46:53.734Z,12.90
2023-12-27T13:49:20.818Z,13.60
2023-12-27T13:51:47.944Z,13.50
2023-12-27T13:54:24.372Z,13.60
2023-12-27T13:56:55.831Z,13.50
2023-12-27T13:59:22.847Z,13.10
2023-12-27T14:01:50.176Z,12.40
2023-12-27T14:04:17.589Z,11.90
2023-12-27T14:06:45.908Z,11.50
2023-12-27T14:09:16.545Z,12.30
2023-12-27T14:11:46.893Z,11.50
2023-12-27T14:14:13.955Z,11.90
2023-12-27T14:16:43.329Z,10.30
2023-12-27T14:19:10.943Z,11.10
2023-12-27T14:21:38.205Z,12.10
2023-12-27T14:24:05.699Z,9.80
2023-12-27T14:26:33.560Z,9.70
2023-12-27T14:29:00.941Z,9.50
2023-12-27T14:31:29.003Z,10.30
2023-12-27T14:33:56.400Z,9.30
2023-12-27T14:36:24.117Z,9.10
2023-12-27T14:38:53.316Z,11.20
2023-12-27T14:41:21.180Z,10.30
2023-12-27T14:43:48.823Z,7.60
2023-12-27T14:46:16.302Z,8.60
2023-12-27T14:48:43.520Z,10.00
2023-12-27T14:51:14.150Z,8.30
2023-12-27T14:53:43.401Z,9.40
2023-12-27T14:56:10.385Z,10.40
2023-12-27T14:58:38.704Z,10.00
2023-12-27T15:01:07.592Z,9.10
2023-12-27T15:03:34.855Z,7.80
2023-12-27T15:06:01.972Z,7.80
2023-12-27T15:08:28.933Z,7.60
2023-12-27T15:10:55.978Z,7.40
2023-12-27T15:13:23.084Z,7.30
2023-12-27T15:15:50.188Z,7.20
2023-12-27T15:18:19.108Z,7.10
2023-12-27T15:20:46.238Z,7.00
2023-12-27T15:23:13.436Z,9.20
2023-12-27T15:25:40.438Z,7.00
2023-12-27T15:28:11.201Z,6.90
2023-12-27T15:30:38.517Z,8.60
2023-12-27T15:33:07.157Z,7.20
2023-12-27T15:35:34.294Z,7.60
2023-12-27T15:38:01.476Z,6.90
2023-12-27T15:40:28.592Z,9.00
2023-12-27T15:42:55.704Z,7.70
2023-12-27T15:45:22.710Z,9.30
2023-12-27T15:47:49.819Z,6.40
2023-12-27T15:50:16.821Z,6.30
2023-12-27T15:52:44.016Z,6.30
2023-12-27T15:55:11.010Z,6.30
2023-12-27T15:57:38.063Z,6.20
2023-12-27T16:00:06.748Z,6.20
2023-12-27T16:02:33.794Z,6.10
2023-12-27T16:05:00.857Z,6.00
2023-12-27T16:07:28.577Z,5.90
2023-12-27T16:09:56.551Z,5.90
2023-12-27T16:12:23.579Z,5.70
2023-12-27T16:14:50.788Z,6.70
2023-12-27T16:17:17.707Z,5.60
2023-12-27T16:19:47.032Z,7.10
2023-12-27T16:22:14.848Z,5.50
2023-12-27T16:24:42.711Z,8.30
2023-12-27T16:27:09.907Z,5.40
2023-12-27T16:29:41.120Z,5.40
2023-12-27T16:32:09.199Z,5.40
2023-12-27T16:34:36.302Z,5.30
2023-12-27T16:37:03.402Z,5.30
2023-12-27T16:39:30.737Z,5.20
2023-12-27T16:41:57.720Z,7.40
2023-12-27T16:44:27.180Z,5.10
2023-12-27T16:46:54.378Z,5.00
2023-12-27T16:49:21.482Z,5.00
2023-12-27T16:51:48.582Z,4.90
2023-12-27T16:54:15.853Z,4.90
2023-12-27T16:56:43.132Z,4.80
2023-12-27T16:59:10.129Z,4.70
2023-12-27T17:01:37.122Z,4.80
2023-12-27T17:04:04.888Z,5.00
2023-12-27T17:06:32.082Z,4.80
2023-12-27T17:08:59.152Z,4.60
2023-12-27T17:11:26.136Z,4.70
2023-12-27T17:13:53.110Z,4.60
2023-12-27T17:16:20.447Z,4.50
2023-12-27T17:18:47.539Z,4.60
2023-12-27T17:21:16.443Z,4.60
2023-12-27T17:23:44.453Z,4.50
2023-12-27T17:26:11.929Z,4.50
2023-12-27T17:28:39.959Z,4.60
2023-12-27T17:31:07.337Z,4.60
2023-12-27T17:33:34.632Z,6.00
2023-12-27T17:36:01.709Z,4.70
2023-12-27T17:38:28.691Z,4.70
2023-12-27T17:40:55.679Z,4.60
2023-12-27T17:43:22.735Z,4.60
2023-12-27T17:45:50.276Z,4.50
2023-12-27T17:48:18.349Z,4.60
2023-12-27T17:50:45.735Z,4.50
2023-12-27T17:53:15.707Z,4.60
2023-12-27T17:55:44.549Z,4.60
2023-12-27T17:58:11.892Z,5.90
2023-12-27T18:00:39.139Z,4.60
2023-12-27T18:03:06.303Z,4.60
2023-12-27T18:05:34.136Z,4.60
2023-12-27T18:08:01.279Z,7.10
2023-12-27T18:10:28.544Z,4.50
2023-12-27T18:12:55.688Z,5.10
2023-12-27T18:15:22.946Z,4.50
2023-12-27T18:17:49.967Z,4.50
2023-12-27T18:20:17.120Z,5.40
2023-12-27T18:22:44.236Z,4.40
2023-12-27T18:25:12.342Z,7.40
2023-12-27T18:27:39.502Z,4.50
2023-12-27T18:30:09.389Z,4.50
2023-12-27T18:32:36.550Z,4.50
2023-12-27T18:35:04.876Z,7.10
2023-12-27T18:37:31.973Z,4.60
2023-12-27T18:39:59.018Z,4.60
2023-12-27T18:42:26.063Z,4.60
2023-12-27T18:44:53.096Z,4.60
2023-12-27T18:47:20.561Z,4.60
2023-12-27T18:49:47.637Z,4.60
2023-12-27T18:52:15.180Z,4.60
2023-12-27T18:54:42.214Z,4.50
2023-12-27T18:57:09.403Z,4.60
2023-12-27T18:59:37.672Z,6.50
2023-12-27T19:02:04.814Z,5.50
2023-12-27T19:04:33.027Z,4.40
2023-12-27T19:07:00.088Z,4.40
2023-12-27T19:09:27.170Z,4.40
2023-12-27T19:11:54.100Z,4.40
2023-12-27T19:14:21.055Z,4.40
2023-12-27T19:16:48.673Z,4.40
2023-12-27T19:19:19.618Z,4.30
2023-12-27T19:21:51.207Z,4.30
2023-12-27T19:24:18.757Z,4.30
2023-12-27T19:26:46.001Z,4.30
2023-12-27T19:29:12.911Z,4.20
2023-12-27T19:31:41.163Z,6.70
2023-12-27T19:34:08.407Z,4.20
2023-12-27T19:36:37.484Z,7.20
2023-12-27T19:39:07.892Z,4.20
2023-12-27T19:41:35.279Z,4.20
2023-12-27T19:44:04.823Z,4.20
2023-12-27T19:46:33.311Z,4.20
2023-12-27T19:49:00.527Z,4.20
2023-12-27T19:51:29.359Z,4.20
2023-12-27T19:53:56.491Z,4.20
2023-12-27T19:56:23.741Z,5.10
2023-12-27T19:58:52.210Z,5.00
2023-12-27T20:01:19.636Z,5.90
2023-12-27T20:03:46.776Z,6.50
2023-12-27T20:06:14.574Z,4.20
2023-12-27T20:08:44.932Z,6.80
2023-12-27T20:11:15.239Z,4.20
2023-12-27T20:13:42.665Z,4.10
2023-12-27T20:16:09.806Z,4.20
2023-12-27T20:18:38.080Z,4.20
2023-12-27T20:21:06.760Z,4.10
2023-12-27T20:23:39.482Z,4.30
2023-12-27T20:26:07.651Z,4.30
2023-12-27T20:28:36.570Z,7.00
2023-12-27T20:31:04.166Z,6.10
2023-12-27T20:33:31.482Z,4.30
2023-12-27T20:35:58.738Z,4.40
2023-12-27T20:38:25.718Z,4.30
2023-12-27T20:40:52.719Z,5.80
2023-12-27T20:43:21.248Z,4.30
2023-12-27T20:45:50.537Z,4.30
2023-12-27T20:48:18.087Z,4.30
2023-12-27T20:50:45.342Z,4.30
2023-12-27T20:53:12.452Z,4.30
2023-12-27T20:55:39.481Z,6.60
2023-12-27T20:58:06.580Z,4.30
2023-12-27T21:00:33.993Z,7.10
2023-12-27T21:03:01.077Z,5.30
2023-12-27T21:05:28.210Z,4.30
2023-12-27T21:07:55.350Z,4.30
2023-12-27T21:10:22.854Z,4.30
2023-12-27T21:12:49.963Z,5.20
2023-12-27T21:15:17.103Z,4.30
2023-12-27T21:17:44.315Z,4.30
2023-12-27T21:20:12.529Z,4.30
2023-12-27T21:22:39.631Z,4.30
2023-12-27T21:25:07.353Z,4.30
2023-12-27T21:27:34.557Z,4.30
2023-12-27T21:30:02.036Z,4.30
2023-12-27T21:32:29.957Z,4.30
2023-12-27T21:34:57.109Z,4.80
2023-12-27T21:37:24.153Z,4.10
2023-12-27T21:39:51.336Z,4.20
2023-12-27T21:42:18.537Z,4.30
2023-12-27T21:44:45.540Z,4.30
2023-12-27T21:47:12.649Z,6.30
2023-12-27T21:49:39.802Z,4.30
2023-12-27T21:52:07.106Z,4.30
2023-12-27T21:54:34.308Z,4.30
2023-12-27T21:57:01.422Z,4.30
2023-12-27T21:59:28.466Z,4.30
2023-12-27T22:01:55.605Z,4.30
2023-12-27T22:04:22.752Z,6.10
2023-12-27T22:06:50.098Z,4.30
2023-12-27T22:09:17.244Z,4.40
2023-12-27T22:11:44.335Z,4.30
2023-12-27T22:14:11.417Z,4.30
2023-12-27T22:16:38.472Z,4.40
2023-12-27T22:19:05.656Z,5.20
2023-12-27T22:21:32.962Z,4.40
2023-12-27T22:24:00.055Z,4.40
2023-12-27T22:26:27.108Z,4.50
2023-12-27T22:28:54.075Z,6.80
2023-12-27T22:31:24.961Z,4.40
2023-12-27T22:33:52.200Z,4.40
2023-12-27T22:36:23.228Z,7.60
2023-12-27T22:38:52.364Z,6.50
2023-12-27T22:41:19.895Z,4.40
2023-12-27T22:43:46.828Z,5.40
2023-12-27T22:46:13.799Z,4.40
2023-12-27T22:48:40.940Z,4.50
2023-12-27T22:51:08.017Z,4.40
2023-12-27T22:53:35.053Z,4.40
2023-12-27T22:56:02.103Z,4.40
2023-12-27T22:58:29.031Z,4.30
2023-12-27T23:00:56.189Z,4.40
2023-12-27T23:03:24.913Z,4.30
2023-12-27T23:05:52.196Z,4.30
2023-12-27T23:08:20.230Z,6.10
2023-12-27T23:10:47.578Z,6.70
2023-12-27T23:13:14.790Z,4.30
2023-12-27T23:15:41.927Z,4.30
2023-12-27T23:18:11.522Z,4.30
2023-12-27T23:20:38.636Z,6.50
2023-12-27T23:23:05.560Z,4.30
2023-12-27T23:25:32.565Z,4.40
2023-12-27T23:27:59.933Z,4.40
2023-12-27T23:30:27.157Z,4.40
2023-12-27T23:32:54.237Z,4.40
2023-12-27T23:35:21.341Z,4.40
2023-12-27T23:37:48.678Z,4.30
2023-12-27T23:40:15.876Z,4.30
2023-12-27T23:42:42.908Z,4.30
2023-12-27T23:45:10.337Z,4.30
2023-12-27T23:47:37.616Z,4.30
2023-12-27T23:50:05.976Z,4.30
2023-12-27T23:52:33.002Z,4.30
2023-12-27T23:54:59.932Z,4.30
2023-12-27T23:57:26.990Z,4.40
2023-12-27T23:59:53.965Z,4.40
